Time;durP1;ratioP1;P1;durP2;ratioP2;P2;SDS_P1;SDS_P2;PMS_P1;PMS_P2;Temp;Humidity;BMP_temperature;BMP_pressure;BME280_temperature;BME280_humidity;BME280_pressure;Samples;Min_cycle;Max_cycle;Signal;HPM_P1;HPM_P2
2024/03/08 00:00:09;;;;;;;16.33;12.37;;;4.80;99.90;;;;;;5071747;28;20511;-58
2024/03/08 00:02:36;;;;;;;19.90;13.90;;;4.70;99.90;;;;;;5064241;28;20212;-58
2024/03/08 00:05:03;;;;;;;17.70;12.63;;;4.70;99.90;;;;;;5074614;28;20211;-57
2024/03/08 00:07:29;;;;;;;20.07;12.23;;;4.70;99.90;;;;;;5074556;28;20268;-58
2024/03/08 00:09:56;;;;;;;16.20;12.30;;;4.70;99.90;;;;;;5074336;28;20721;-58
2024/03/08 00:12:25;;;;;;;17.73;12.80;;;4.70;99.90;;;;;;5074289;28;20258;-57
2024/03/08 00:14:52;;;;;;;18.17;13.33;;;4.70;99.90;;;;;;5074370;28;20205;-58
2024/03/08 00:17:19;;;;;;;18.57;12.67;;;4.70;99.90;;;;;;5074254;28;20201;-57
2024/03/08 00:19:45;;;;;;;20.03;13.13;;;4.70;99.90;;;;;;5074363;28;20224;-57
2024/03/08 00:22:12;;;;;;;17.20;12.87;;;4.70;99.90;;;;;;5074326;28;20201;-57
2024/03/08 00:24:39;;;;;;;17.63;12.77;;;4.60;99.90;;;;;;5073899;28;20283;-57
2024/03/08 00:27:05;;;;;;;19.57;12.33;;;4.60;99.90;;;;;;5074076;28;20205;-57
2024/03/08 00:29:33;;;;;;;16.90;12.50;;;4.60;99.90;;;;;;5073949;28;20741;-58
2024/03/08 00:32:00;;;;;;;16.23;12.40;;;4.60;99.90;;;;;;5074232;28;20200;-58
2024/03/08 00:34:27;;;;;;;18.73;13.60;;;4.50;99.90;;;;;;5074355;28;20205;-58
2024/03/08 00:36:54;;;;;;;19.70;13.20;;;4.50;99.90;;;;;;5073872;28;20208;-59
2024/03/08 00:39:21;;;;;;;15.57;12.30;;;4.50;99.90;;;;;;5073752;28;20217;-58
2024/03/08 00:41:48;;;;;;;16.67;12.97;;;4.50;99.90;;;;;;5073880;28;20583;-57
2024/03/08 00:44:15;;;;;;;17.57;12.93;;;4.50;99.90;;;;;;5073744;28;20207;-58
2024/03/08 00:46:43;;;;;;;17.17;13.03;;;4.50;99.90;;;;;;5073953;28;20243;-57
2024/03/08 00:49:10;;;;;;;23.47;13.03;;;4.50;99.90;;;;;;5073539;28;20224;-57
2024/03/08 00:51:36;;;;;;;17.13;13.17;;;4.50;99.90;;;;;;5073572;28;20201;-57
2024/03/08 00:54:03;;;;;;;17.70;12.40;;;4.40;99.90;;;;;;5073556;28;20229;-57
2024/03/08 00:56:30;;;;;;;17.17;12.60;;;4.40;99.90;;;;;;5073580;28;20216;-57
2024/03/08 00:58:57;;;;;;;17.60;13.03;;;4.40;99.90;;;;;;5073459;28;20694;-59
2024/03/08 01:01:24;;;;;;;17.60;12.67;;;4.40;99.90;;;;;;5073462;28;20209;-56
2024/03/08 01:03:52;;;;;;;16.43;12.33;;;4.40;99.90;;;;;;5073102;28;20250;-59
2024/03/08 01:06:19;;;;;;;17.03;12.50;;;4.30;99.90;;;;;;5073151;28;20585;-59
2024/03/08 01:08:46;;;;;;;16.50;12.37;;;4.30;99.90;;;;;;5073327;28;20221;-56
2024/03/08 01:11:14;;;;;;;20.03;12.93;;;4.30;99.90;;;;;;5073357;28;20197;-57
2024/03/08 01:13:41;;;;;;;18.00;12.87;;;4.30;99.90;;;;;;5072805;28;20204;-57
2024/03/08 01:16:08;;;;;;;18.00;12.43;;;4.30;99.90;;;;;;5073170;28;20197;-58
2024/03/08 01:18:34;;;;;;;17.57;12.77;;;4.20;99.90;;;;;;5073097;28;20197;-57
2024/03/08 01:21:02;;;;;;;20.97;13.00;;;4.30;99.90;;;;;;5072958;28;20224;-58
2024/03/08 01:23:29;;;;;;;17.20;12.67;;;4.30;99.90;;;;;;5072779;28;20208;-58
2024/03/08 01:25:57;;;;;;;15.50;12.00;;;4.20;99.90;;;;;;5073057;28;20200;-58
2024/03/08 01:28:24;;;;;;;17.63;12.27;;;4.10;99.90;;;;;;5072888;28;20311;-58
2024/03/08 01:30:55;;;;;;;17.37;13.20;;;4.10;99.90;;;;;;5072981;28;20252;-59
2024/03/08 01:33:22;;;;;;;17.50;12.47;;;4.10;99.90;;;;;;5072345;28;20217;-57
2024/03/08 01:35:49;;;;;;;19.40;13.10;;;4.10;99.90;;;;;;5073046;28;20204;-57
2024/03/08 01:38:17;;;;;;;17.40;12.60;;;4.10;99.90;;;;;;5072833;28;20252;-58
2024/03/08 01:40:44;;;;;;;19.17;13.17;;;4.00;99.90;;;;;;5072419;28;20714;-58
2024/03/08 01:43:19;;;;;;;17.60;12.63;;;4.00;99.90;;;;;;5072509;28;20208;-59
2024/03/08 01:45:46;;;;;;;17.00;12.30;;;4.00;99.90;;;;;;5065205;28;20257;-58
2024/03/08 01:48:13;;;;;;;15.37;11.97;;;3.90;99.90;;;;;;5072443;28;20646;-58
2024/03/08 01:50:40;;;;;;;16.43;11.43;;;3.90;99.90;;;;;;5064379;28;20229;-58
2024/03/08 01:53:10;;;;;;;16.70;12.07;;;3.90;99.90;;;;;;5072324;28;20278;-57
2024/03/08 01:55:38;;;;;;;15.17;11.37;;;3.90;99.90;;;;;;5072326;28;20197;-57
2024/03/08 01:58:06;;;;;;;17.20;12.00;;;4.00;99.90;;;;;;5072357;28;20200;-57
2024/03/08 02:00:33;;;;;;;17.00;12.47;;;4.00;99.90;;;;;;5072374;28;20228;-56
2024/03/08 02:03:01;;;;;;;17.40;12.30;;;3.90;99.90;;;;;;5072102;28;20207;-56
2024/03/08 02:05:28;;;;;;;17.40;12.70;;;3.90;99.90;;;;;;5072467;28;20205;-57
2024/03/08 02:07:54;;;;;;;16.43;12.03;;;3.80;99.90;;;;;;5072618;28;20260;-58
2024/03/08 02:10:22;;;;;;;16.97;12.20;;;3.80;99.90;;;;;;5072287;28;20239;-58
2024/03/08 02:12:50;;;;;;;16.27;12.00;;;3.80;99.90;;;;;;5072084;28;20781;-57
2024/03/08 02:15:16;;;;;;;16.53;11.90;;;3.80;99.90;;;;;;5072365;28;20208;-58
2024/03/08 02:17:43;;;;;;;15.80;11.47;;;3.80;99.90;;;;;;5072387;28;20201;-56
2024/03/08 02:20:13;;;;;;;16.30;11.57;;;3.80;99.90;;;;;;5072044;28;20637;-57
2024/03/08 02:22:41;;;;;;;15.67;11.63;;;3.70;99.90;;;;;;5072142;28;20197;-57
2024/03/08 02:25:09;;;;;;;14.00;11.00;;;3.70;99.90;;;;;;5071109;28;20197;-57
2024/03/08 02:27:36;;;;;;;14.80;11.17;;;3.70;99.90;;;;;;5071533;28;20209;-57
2024/03/08 02:30:02;;;;;;;16.43;11.50;;;3.70;99.90;;;;;;5072153;28;20228;-57
2024/03/08 02:32:29;;;;;;;18.53;11.33;;;3.60;99.90;;;;;;5072079;28;20209;-57
2024/03/08 02:34:59;;;;;;;13.97;11.33;;;3.60;99.90;;;;;;5071648;28;20209;-57
2024/03/08 02:37:26;;;;;;;16.47;11.57;;;3.60;99.90;;;;;;5071638;28;20235;-57
2024/03/08 02:39:55;;;;;;;19.60;12.00;;;3.50;99.90;;;;;;5071957;28;20701;-57
2024/03/08 02:42:22;;;;;;;16.67;11.70;;;3.50;99.90;;;;;;5071869;28;20205;-58
2024/03/08 02:44:49;;;;;;;20.33;11.40;;;3.50;99.90;;;;;;5071713;28;20254;-58
2024/03/08 02:47:16;;;;;;;14.40;10.23;;;3.40;99.90;;;;;;5071736;28;20209;-58
2024/03/08 02:49:42;;;;;;;16.13;11.93;;;3.30;99.90;;;;;;5071711;28;20225;-58
2024/03/08 02:52:09;;;;;;;15.87;11.50;;;3.30;99.90;;;;;;5071660;28;20205;-58
2024/03/08 02:54:36;;;;;;;16.27;11.80;;;3.30;99.90;;;;;;5071271;28;20679;-57
2024/03/08 02:57:07;;;;;;;14.67;10.70;;;3.30;99.90;;;;;;5071833;28;20197;-58
2024/03/08 02:59:34;;;;;;;16.43;11.77;;;3.30;99.90;;;;;;5071791;28;20225;-59
2024/03/08 03:02:00;;;;;;;14.40;11.50;;;3.40;99.90;;;;;;5071767;28;20283;-59
2024/03/08 03:04:27;;;;;;;18.90;13.10;;;3.20;99.90;;;;;;5071147;28;20239;-59
2024/03/08 03:06:54;;;;;;;15.90;11.43;;;3.20;99.90;;;;;;5071475;28;20212;-57
2024/03/08 03:09:27;;;;;;;14.73;11.57;;;3.30;99.90;;;;;;5071132;28;20228;-58
2024/03/08 03:11:54;;;;;;;18.13;12.03;;;3.30;99.90;;;;;;5071536;28;20880;-59
2024/03/08 03:14:22;;;;;;;15.33;11.60;;;3.30;99.90;;;;;;5071261;28;20212;-58
2024/03/08 03:16:49;;;;;;;16.40;11.03;;;3.40;99.90;;;;;;5071626;28;20254;-58
2024/03/08 03:19:16;;;;;;;14.60;11.50;;;3.30;99.90;;;;;;5071333;28;20243;-58
2024/03/08 03:21:44;;;;;;;16.13;11.37;;;3.40;99.90;;;;;;5063257;28;20209;-58
2024/03/08 03:24:10;;;;;;;15.80;11.30;;;3.40;99.90;;;;;;5071295;28;20288;-57
2024/03/08 03:26:38;;;;;;;14.47;11.20;;;3.40;99.90;;;;;;5071562;28;20305;-58
2024/03/08 03:29:06;;;;;;;14.10;10.90;;;3.40;99.90;;;;;;5071091;28;20220;-59
2024/03/08 03:31:34;;;;;;;15.47;11.57;;;3.40;99.90;;;;;;5071158;28;20308;-57
2024/03/08 03:34:02;;;;;;;16.60;11.27;;;3.40;99.90;;;;;;5071024;28;20197;-57
2024/03/08 03:36:29;;;;;;;15.27;11.13;;;3.40;99.90;;;;;;5072354;28;20201;-58
2024/03/08 03:39:10;;;;;;;15.50;10.93;;;3.30;99.90;;;;;;5075129;28;20204;-59
2024/03/08 03:41:38;;;;;;;17.33;11.40;;;3.20;99.90;;;;;;5075002;28;20249;-58
2024/03/08 03:44:05;;;;;;;15.17;11.20;;;3.20;99.90;;;;;;5074669;28;20208;-58
2024/03/08 03:46:32;;;;;;;16.13;11.70;;;3.20;99.90;;;;;;5074793;28;20637;-58
2024/03/08 03:51:29;;;;;;;13.63;10.33;;;3.20;99.90;;;;;;5005721;28;20275;-61
2024/03/08 03:53:57;;;;;;;16.40;11.93;;;3.20;99.90;;;;;;5007155;28;20577;-61
2024/03/08 03:56:26;;;;;;;17.23;12.03;;;3.20;99.90;;;;;;5006009;28;20285;-62
2024/03/08 03:58:53;;;;;;;15.27;11.17;;;3.20;99.90;;;;;;5003492;28;20594;-62
2024/03/08 04:01:20;;;;;;;17.97;10.57;;;3.30;99.90;;;;;;5003530;28;20227;-61
2024/03/08 04:03:47;;;;;;;17.33;12.03;;;3.30;99.90;;;;;;5006839;28;20203;-60
2024/03/08 04:06:14;;;;;;;17.47;12.10;;;3.30;99.90;;;;;;5007286;28;20285;-60
2024/03/08 04:08:42;;;;;;;17.87;11.73;;;3.30;99.90;;;;;;5004279;28;20250;-60
2024/03/08 04:11:09;;;;;;;14.93;11.53;;;3.30;99.90;;;;;;5003866;28;20310;-60
2024/03/08 04:13:36;;;;;;;16.00;11.33;;;3.30;99.90;;;;;;5005328;28;20709;-60
2024/03/08 04:16:03;;;;;;;15.10;11.33;;;3.30;99.90;;;;;;5006996;28;20217;-60
2024/03/08 04:18:29;;;;;;;16.70;11.63;;;3.30;99.90;;;;;;5005493;28;20210;-60
2024/03/08 04:20:56;;;;;;;16.73;11.27;;;3.30;99.90;;;;;;5003542;28;20227;-60
2024/03/08 04:23:23;;;;;;;16.20;11.43;;;3.30;99.90;;;;;;5003613;28;20211;-60
2024/03/08 04:25:51;;;;;;;17.20;11.70;;;3.20;99.90;;;;;;5006655;28;20211;-60
2024/03/08 04:28:17;;;;;;;22.23;14.80;;;3.30;99.90;;;;;;5006571;28;20261;-60
2024/03/08 04:30:46;;;;;;;17.67;12.90;;;3.20;99.90;;;;;;5003183;28;20234;-60
2024/03/08 04:33:17;;;;;;;17.03;12.50;;;3.30;99.90;;;;;;5010207;28;20253;-60
2024/03/08 04:35:45;;;;;;;16.77;12.23;;;3.30;99.90;;;;;;5002892;28;20204;-60
2024/03/08 04:38:12;;;;;;;15.07;11.93;;;3.30;99.90;;;;;;5002717;28;20207;-61
2024/03/08 04:40:39;;;;;;;16.33;12.50;;;3.30;99.90;;;;;;5005341;28;20230;-60
2024/03/08 04:43:08;;;;;;;17.57;12.43;;;3.30;99.90;;;;;;5005849;28;20207;-60
2024/03/08 04:45:35;;;;;;;16.17;11.77;;;3.30;99.90;;;;;;5004038;28;20273;-60
2024/03/08 04:48:01;;;;;;;15.73;11.57;;;3.30;99.90;;;;;;5001901;28;20763;-60
2024/03/08 04:50:28;;;;;;;15.40;11.67;;;3.20;99.90;;;;;;5003414;28;20227;-60
2024/03/08 04:52:55;;;;;;;18.27;12.40;;;3.20;99.90;;;;;;5005646;28;20214;-60
2024/03/08 04:55:22;;;;;;;18.83;12.90;;;3.10;99.90;;;;;;5005270;28;20214;-60
2024/03/08 04:57:49;;;;;;;17.37;12.63;;;3.20;99.90;;;;;;5002478;28;20208;-60
2024/03/08 05:00:19;;;;;;;17.37;12.67;;;3.10;99.90;;;;;;5002408;28;20223;-60
2024/03/08 05:02:45;;;;;;;18.67;12.37;;;3.10;99.90;;;;;;5002277;28;20626;-60
2024/03/08 05:05:12;;;;;;;17.73;12.60;;;3.10;99.90;;;;;;5002235;28;20203;-60
2024/03/08 05:07:39;;;;;;;19.60;12.73;;;3.10;99.90;;;;;;5004678;28;20743;-60
2024/03/08 05:10:07;;;;;;;17.17;13.07;;;3.00;99.90;;;;;;5005261;28;20223;-60
2024/03/08 05:12:33;;;;;;;18.27;12.77;;;2.90;99.90;;;;;;5003400;28;20580;-60
2024/03/08 05:15:00;;;;;;;16.27;12.10;;;3.00;99.90;;;;;;5001859;28;20258;-60
2024/03/08 05:17:30;;;;;;;17.83;12.10;;;3.00;99.90;;;;;;5002724;28;20216;-60
2024/03/08 05:19:56;;;;;;;16.53;11.97;;;3.00;99.90;;;;;;5005215;28;20215;-60
2024/03/08 05:22:23;;;;;;;16.27;11.60;;;3.00;99.90;;;;;;5004908;28;20207;-60
2024/03/08 05:24:50;;;;;;;19.37;12.80;;;3.00;99.90;;;;;;5001569;28;20294;-60
2024/03/08 05:27:17;;;;;;;19.60;12.47;;;3.00;99.90;;;;;;5001941;28;20204;-60
2024/03/08 05:29:43;;;;;;;16.63;12.00;;;2.90;99.90;;;;;;5004591;28;20317;-60
2024/03/08 05:32:12;;;;;;;16.70;12.40;;;2.90;99.90;;;;;;5005083;28;20210;-60
2024/03/08 05:34:39;;;;;;;17.23;12.67;;;2.80;99.90;;;;;;5002210;28;20294;-60
2024/03/08 05:37:07;;;;;;;19.30;13.13;;;2.80;99.90;;;;;;5001398;28;20673;-60
2024/03/08 05:39:33;;;;;;;18.93;12.47;;;2.80;99.90;;;;;;5003237;28;20314;-60
2024/03/08 05:42:00;;;;;;;18.80;12.90;;;2.80;99.90;;;;;;5005005;28;20199;-60
2024/03/08 05:44:28;;;;;;;17.10;12.70;;;2.90;99.90;;;;;;5003706;28;20207;-60
2024/03/08 05:46:55;;;;;;;20.83;13.80;;;2.90;99.90;;;;;;5001519;28;20313;-60
2024/03/08 05:49:22;;;;;;;18.57;12.90;;;2.90;99.90;;;;;;5001080;28;20227;-60
2024/03/08 05:51:51;;;;;;;17.90;13.27;;;3.00;99.90;;;;;;5004676;28;20462;-60
2024/03/08 05:54:18;;;;;;;20.30;13.13;;;3.00;99.90;;;;;;5004237;28;20745;-60
2024/03/08 05:56:44;;;;;;;19.20;13.27;;;3.00;99.90;;;;;;5001470;28;20207;-60
2024/03/08 05:59:11;;;;;;;22.33;15.27;;;3.00;99.90;;;;;;5000987;28;20200;-60
2024/03/08 06:01:40;;;;;;;18.77;13.17;;;3.10;99.90;;;;;;5002803;28;20212;-61
2024/03/08 06:04:07;;;;;;;18.63;13.07;;;3.20;99.90;;;;;;5004315;28;20261;-60
2024/03/08 06:06:34;;;;;;;20.80;15.10;;;3.10;99.90;;;;;;5002855;28;20214;-60
2024/03/08 06:09:09;;;;;;;19.63;13.60;;;3.00;99.90;;;;;;5000938;28;20708;-60
2024/03/08 06:11:37;;;;;;;18.17;12.87;;;3.20;99.90;;;;;;5002847;28;20243;-60
2024/03/08 06:14:04;;;;;;;17.57;13.13;;;3.20;99.90;;;;;;5004076;28;20578;-61
2024/03/08 06:16:30;;;;;;;18.13;12.20;;;3.30;99.90;;;;;;5003143;28;20218;-60
2024/03/08 06:18:58;;;;;;;17.17;12.37;;;3.40;99.90;;;;;;5000869;28;20212;-60
2024/03/08 06:21:25;;;;;;;19.67;13.73;;;3.50;99.90;;;;;;5001080;28;20650;-61
2024/03/08 06:23:54;;;;;;;20.13;14.27;;;3.70;99.90;;;;;;5004065;28;20203;-61
2024/03/08 06:26:22;;;;;;;20.03;13.57;;;3.80;99.90;;;;;;5004251;28;20211;-59
2024/03/08 06:28:50;;;;;;;17.30;12.50;;;3.90;99.90;;;;;;5004509;28;20657;-59
2024/03/08 06:31:17;;;;;;;19.07;13.33;;;4.00;99.90;;;;;;5003921;28;20231;-60
2024/03/08 06:33:44;;;;;;;17.73;13.00;;;4.10;99.90;;;;;;5000553;28;20207;-61
2024/03/08 06:36:11;;;;;;;18.17;12.97;;;4.10;99.90;;;;;;5000654;28;20729;-62
2024/03/08 06:38:42;;;;;;;20.67;13.33;;;4.20;99.90;;;;;;5002577;28;20207;-60
2024/03/08 06:41:09;;;;;;;20.83;15.80;;;4.30;99.90;;;;;;5004020;28;20321;-60
2024/03/08 06:43:37;;;;;;;20.40;13.53;;;4.60;99.90;;;;;;5001806;28;20203;-60
2024/03/08 06:46:03;;;;;;;22.87;14.90;;;5.00;99.90;;;;;;5000567;28;20211;-60
2024/03/08 06:48:30;;;;;;;17.73;12.07;;;5.30;99.90;;;;;;5001460;28;20207;-60
2024/03/08 06:50:58;;;;;;;16.13;11.87;;;5.50;99.90;;;;;;5003522;28;20257;-60
2024/03/08 06:53:25;;;;;;;16.20;12.63;;;5.70;99.90;;;;;;5003373;28;20257;-61
2024/03/08 06:55:52;;;;;;;18.00;12.70;;;5.90;99.90;;;;;;5000428;28;20203;-60
2024/03/08 06:58:18;;;;;;;17.57;12.20;;;6.10;99.90;;;;;;5000232;28;20612;-60
2024/03/08 07:00:47;;;;;;;17.60;13.07;;;6.30;99.90;;;;;;5003085;28;20640;-60
2024/03/08 07:03:17;;;;;;;15.47;11.87;;;6.50;99.90;;;;;;5003478;28;20633;-60
2024/03/08 07:05:43;;;;;;;17.47;12.43;;;6.70;99.90;;;;;;5000616;28;20596;-60
2024/03/08 07:08:11;;;;;;;17.37;12.47;;;6.80;99.90;;;;;;5000382;28;20204;-61
2024/03/08 07:10:41;;;;;;;16.67;12.07;;;7.00;99.90;;;;;;5002039;28;20231;-60
2024/03/08 07:13:08;;;;;;;19.23;12.73;;;7.10;99.90;;;;;;5007141;28;20687;-60
2024/03/08 07:15:35;;;;;;;17.97;12.83;;;7.30;99.90;;;;;;5006377;28;20215;-61
2024/03/08 07:18:03;;;;;;;16.60;12.33;;;7.40;99.90;;;;;;5004178;28;20204;-60
2024/03/08 07:20:30;;;;;;;15.57;12.03;;;7.40;99.90;;;;;;5004508;28;20226;-59
2024/03/08 07:22:57;;;;;;;24.30;12.63;;;7.40;99.90;;;;;;5007293;28;20619;-61
2024/03/08 07:25:24;;;;;;;18.47;12.37;;;7.40;99.90;;;;;;5007478;28;20211;-61
2024/03/08 07:27:52;;;;;;;18.33;11.60;;;7.60;99.90;;;;;;5007603;28;20631;-60
2024/03/08 07:33:02;;;;;;;16.37;12.10;;;7.80;99.90;;;;;;5008176;28;20207;-60
2024/03/08 07:35:30;;;;;;;15.23;12.00;;;7.80;99.90;;;;;;5006646;28;20203;-59
2024/03/08 07:37:57;;;;;;;16.47;12.10;;;7.80;99.90;;;;;;5003856;28;20200;-60
2024/03/08 07:40:24;;;;;;;16.87;11.80;;;7.80;99.90;;;;;;5004240;28;20227;-59
2024/03/08 07:42:51;;;;;;;18.83;12.80;;;7.60;99.90;;;;;;5007128;28;20594;-59
2024/03/08 07:45:17;;;;;;;15.90;12.00;;;7.40;99.90;;;;;;5007185;28;20257;-60
2024/03/08 07:47:44;;;;;;;19.37;13.10;;;7.40;99.90;;;;;;5004291;28;22399;-59
2024/03/08 07:50:15;;;;;;;18.73;13.13;;;7.20;99.90;;;;;;5003547;28;20234;-61
2024/03/08 07:52:43;;;;;;;15.03;12.47;;;7.30;99.90;;;;;;5005626;28;20220;-60
2024/03/08 07:55:10;;;;;;;17.50;12.77;;;7.30;99.90;;;;;;5006687;28;20202;-61
2024/03/08 07:57:38;;;;;;;17.20;12.90;;;7.40;99.90;;;;;;5005057;28;20564;-61
2024/03/08 08:00:08;;;;;;;17.73;13.27;;;7.50;99.90;;;;;;5003303;28;20219;-61
2024/03/08 08:02:35;;;;;;;17.47;13.10;;;7.60;99.90;;;;;;5004668;28;20691;-61
2024/03/08 08:05:01;;;;;;;15.63;12.30;;;7.70;99.90;;;;;;5006756;28;20329;-62
2024/03/08 08:07:28;;;;;;;15.27;11.43;;;7.70;99.90;;;;;;5006374;28;20269;-61
2024/03/08 08:09:57;;;;;;;16.67;12.43;;;7.70;99.90;;;;;;5002903;28;20610;-61
2024/03/08 08:12:23;;;;;;;15.70;12.03;;;7.50;99.90;;;;;;5003134;28;20818;-61
2024/03/08 08:14:50;;;;;;;15.97;12.90;;;7.30;99.90;;;;;;5011249;28;20230;-61
2024/03/08 08:17:17;;;;;;;15.60;12.20;;;7.20;99.90;;;;;;5003258;28;20243;-61
2024/03/08 08:19:43;;;;;;;15.53;12.30;;;7.10;99.90;;;;;;5005666;28;20229;-60
2024/03/08 08:22:11;;;;;;;19.70;13.13;;;7.20;99.90;;;;;;5006556;28;20290;-61
2024/03/08 08:24:38;;;;;;;16.93;13.33;;;7.10;99.90;;;;;;5003176;28;20681;-61
2024/03/08 08:27:05;;;;;;;17.33;12.20;;;7.20;99.90;;;;;;5002701;28;20572;-60
2024/03/08 08:29:33;;;;;;;18.23;12.73;;;7.20;99.90;;;;;;5003286;28;20658;-60
2024/03/08 08:32:00;;;;;;;16.77;12.47;;;7.30;99.90;;;;;;5006149;28;20203;-60
2024/03/08 08:34:27;;;;;;;17.27;12.70;;;7.30;99.90;;;;;;5005755;28;20750;-60
2024/03/08 08:36:54;;;;;;;16.97;12.60;;;7.40;99.90;;;;;;5002810;28;20200;-61
2024/03/08 08:39:22;;;;;;;17.37;12.40;;;7.50;99.90;;;;;;5002517;28;20223;-61
2024/03/08 08:41:49;;;;;;;18.80;13.37;;;7.60;99.90;;;;;;5005470;28;20203;-61
2024/03/08 08:44:17;;;;;;;15.30;12.40;;;7.70;99.90;;;;;;5006143;28;20211;-60
2024/03/08 08:46:43;;;;;;;15.23;11.50;;;7.80;99.90;;;;;;5003301;28;20221;-60
2024/03/08 08:49:14;;;;;;;15.70;12.27;;;7.90;99.90;;;;;;5002760;28;20204;-60
2024/03/08 08:51:41;;;;;;;16.00;12.10;;;7.90;99.90;;;;;;5004553;28;20290;-60
2024/03/08 08:54:07;;;;;;;16.43;11.40;;;8.10;99.90;;;;;;5006033;28;20207;-60
2024/03/08 08:56:34;;;;;;;17.70;12.13;;;8.20;99.90;;;;;;5004797;28;20598;-60
2024/03/08 08:59:01;;;;;;;17.30;12.30;;;8.20;99.90;;;;;;5002398;28;20286;-60
2024/03/08 09:01:29;;;;;;;16.17;12.43;;;8.20;99.90;;;;;;5002291;28;20720;-61
2024/03/08 09:03:56;;;;;;;16.50;12.03;;;8.20;99.90;;;;;;5005624;28;20234;-60
2024/03/08 09:06:22;;;;;;;17.23;12.10;;;8.40;99.90;;;;;;5005662;28;20211;-61
2024/03/08 09:08:49;;;;;;;17.40;12.67;;;8.60;99.90;;;;;;5002720;28;20700;-60
2024/03/08 09:11:16;;;;;;;18.30;11.77;;;8.80;99.90;;;;;;5002326;28;20223;-61
2024/03/08 09:13:45;;;;;;;17.40;11.67;;;8.70;99.90;;;;;;5003853;28;20212;-60
2024/03/08 09:16:12;;;;;;;15.00;12.00;;;8.60;99.90;;;;;;5006074;28;20227;-59
2024/03/08 09:18:41;;;;;;;19.97;13.00;;;8.50;99.90;;;;;;5004198;28;20211;-60
2024/03/08 09:21:09;;;;;;;16.50;11.57;;;8.60;99.90;;;;;;5002155;28;20215;-61
2024/03/08 09:23:36;;;;;;;15.30;12.47;;;8.70;99.90;;;;;;5002999;28;20258;-60
2024/03/08 09:26:03;;;;;;;14.93;11.60;;;8.90;99.90;;;;;;5005466;28;20298;-61
2024/03/08 09:28:30;;;;;;;16.73;12.10;;;9.00;99.90;;;;;;5004683;28;20294;-59
2024/03/08 09:30:58;;;;;;;14.23;11.17;;;9.10;99.90;;;;;;5001831;28;20223;-60
2024/03/08 09:33:25;;;;;;;14.90;12.10;;;9.20;99.90;;;;;;5001566;28;20216;-60
2024/03/08 09:35:53;;;;;;;16.17;11.80;;;8.90;99.90;;;;;;5004990;28;20214;-60
2024/03/08 09:38:21;;;;;;;16.27;11.93;;;8.80;99.90;;;;;;5005362;28;20244;-60
2024/03/08 09:40:48;;;;;;;14.87;11.13;;;8.90;99.90;;;;;;5001960;28;20255;-60
2024/03/08 09:43:15;;;;;;;17.20;12.70;;;9.10;99.90;;;;;;5000956;28;20678;-60
2024/03/08 09:45:43;;;;;;;19.67;12.80;;;9.40;99.90;;;;;;5003411;28;20212;-61
2024/03/08 09:48:13;;;;;;;15.13;12.20;;;9.60;99.90;;;;;;5004858;28;20214;-61
2024/03/08 09:50:40;;;;;;;19.80;12.33;;;9.80;99.90;;;;;;5047403;22;20240;-54
2024/03/08 09:53:09;;;;;;;17.33;12.43;;;9.90;99.90;;;;;;5075469;28;20300;-54
2024/03/08 09:55:37;;;;;;;15.90;12.17;;;10.00;99.90;;;;;;5071214;28;20275;-55
2024/03/08 09:58:48;;;;;;;16.70;12.47;;;10.10;99.90;;;;;;5076206;28;20204;-58
2024/03/08 10:01:15;;;;;;;16.67;11.53;;;10.30;99.90;;;;;;5075619;28;20709;-54
2024/03/08 10:03:41;;;;;;;17.40;11.87;;;10.10;99.90;;;;;;5082761;28;20254;-53
2024/03/08 10:06:10;;;;;;;16.63;12.70;;;9.70;99.90;;;;;;5084263;28;20207;-57
2024/03/08 10:08:37;;;;;;;16.23;12.30;;;9.70;99.90;;;;;;5082895;28;20239;-54
2024/03/08 10:11:04;;;;;;;16.53;12.37;;;9.60;99.90;;;;;;5080407;28;20707;-54
2024/03/08 10:13:32;;;;;;;17.27;12.77;;;9.80;99.90;;;;;;5080686;28;20666;-54
2024/03/08 10:15:59;;;;;;;18.33;12.17;;;10.20;99.90;;;;;;5084130;28;20200;-54
2024/03/08 10:18:27;;;;;;;17.00;12.20;;;10.10;99.90;;;;;;5084361;28;20218;-54
2024/03/08 10:21:11;;;;;;;17.13;12.37;;;10.10;99.90;;;;;;5080359;28;20224;-54
2024/03/08 10:23:41;;;;;;;17.53;12.30;;;10.10;99.90;;;;;;5081942;28;20205;-54
2024/03/08 10:26:14;;;;;;;16.77;13.17;;;10.10;99.90;;;;;;5084350;28;20211;-54
2024/03/08 10:28:41;;;;;;;18.37;12.90;;;10.10;99.90;;;;;;5081934;28;20204;-55
2024/03/08 10:31:09;;;;;;;15.90;12.13;;;10.30;99.90;;;;;;5080392;28;20269;-54
2024/03/08 10:33:37;;;;;;;17.53;12.97;;;10.70;99.90;;;;;;5080882;28;20849;-54
2024/03/08 10:36:06;;;;;;;15.63;11.67;;;10.90;99.90;;;;;;5083747;28;20231;-54
2024/03/08 10:38:33;;;;;;;16.63;12.10;;;10.70;99.90;;;;;;5083183;28;20204;-56
2024/03/08 10:41:04;;;;;;;15.77;12.00;;;10.70;99.90;;;;;;5080440;28;20248;-54
2024/03/08 10:43:37;;;;;;;18.00;12.30;;;10.70;99.90;;;;;;5076586;28;20215;-56
2024/03/08 10:46:17;;;;;;;17.53;12.83;;;11.00;99.90;;;;;;5079777;28;20205;-55
2024/03/08 10:48:46;;;;;;;16.73;12.30;;;11.50;99.90;;;;;;5082038;28;20285;-54
2024/03/08 10:51:13;;;;;;;16.00;11.73;;;12.00;99.90;;;;;;5083275;28;20224;-54
2024/03/08 10:53:41;;;;;;;17.43;12.47;;;12.30;99.90;;;;;;5081503;28;20208;-55
2024/03/08 10:56:10;;;;;;;15.83;11.50;;;12.50;99.90;;;;;;5080446;28;20284;-55
2024/03/08 10:58:38;;;;;;;15.90;11.97;;;12.90;99.90;;;;;;5080858;28;20251;-53
2024/03/08 11:01:06;;;;;;;18.33;12.10;;;13.20;99.90;;;;;;5083359;28;20239;-54
2024/03/08 11:03:46;;;;;;;16.50;11.80;;;13.00;99.90;;;;;;5082692;28;20239;-53
2024/03/08 11:06:17;;;;;;;15.27;11.83;;;12.40;99.90;;;;;;5079822;28;20596;-54
2024/03/08 11:08:43;;;;;;;16.47;11.57;;;12.10;99.90;;;;;;5081927;28;20221;-56
2024/03/08 11:11:34;;;;;;;17.87;12.93;;;12.10;99.90;;;;;;5083859;28;20227;-54
2024/03/08 11:14:02;;;;;;;16.63;12.73;;;12.10;99.90;;;;;;5072293;28;20201;-54
2024/03/08 11:16:47;;;;;;;17.10;12.87;;;11.90;99.90;;;;;;5080287;28;20204;-62
2024/03/08 11:19:29;;;;;;;16.30;12.60;;;11.90;99.90;;;;;;5074891;28;20204;-59
2024/03/08 11:22:00;;;;;;;17.77;13.13;;;11.80;99.90;;;;;;5072256;28;20287;-61
2024/03/08 11:24:27;;;;;;;20.80;13.73;;;11.80;99.90;;;;;;5080334;28;20209;-62
2024/03/08 11:26:59;;;;;;;15.77;12.20;;;11.80;99.90;;;;;;5083619;28;20581;-60
2024/03/08 11:29:39;;;;;;;17.33;12.80;;;11.70;99.90;;;;;;5083356;28;20212;-61
2024/03/08 11:32:08;;;;;;;15.93;12.20;;;11.60;99.90;;;;;;5072835;28;20224;-62
2024/03/08 11:34:35;;;;;;;20.27;12.33;;;11.30;99.90;;;;;;5079920;28;20205;-61
2024/03/08 11:37:01;;;;;;;19.03;12.73;;;11.20;99.90;;;;;;5083190;28;20204;-62
2024/03/08 11:39:29;;;;;;;16.83;11.93;;;11.00;99.90;;;;;;5083047;28;20208;-62
2024/03/08 11:41:58;;;;;;;21.43;13.50;;;10.90;99.90;;;;;;5079655;28;20197;-61
2024/03/08 11:44:28;;;;;;;17.87;13.10;;;10.70;99.90;;;;;;5079686;28;20201;-59
2024/03/08 11:46:55;;;;;;;16.33;12.33;;;10.60;99.90;;;;;;5083412;28;20230;-57
2024/03/08 11:49:23;;;;;;;17.20;12.77;;;10.80;99.90;;;;;;5082915;28;20204;-59
2024/03/08 11:51:53;;;;;;;16.83;12.63;;;10.70;99.90;;;;;;5080398;28;20594;-61
2024/03/08 11:54:20;;;;;;;18.27;13.17;;;10.60;99.90;;;;;;5079441;28;20258;-61
2024/03/08 11:56:47;;;;;;;16.90;12.27;;;10.70;99.90;;;;;;5081749;28;20251;-61
2024/03/08 11:59:17;;;;;;;17.30;12.77;;;10.70;99.90;;;;;;5086643;28;20200;-54
2024/03/08 12:01:44;;;;;;;17.17;13.00;;;10.60;99.90;;;;;;5084779;28;20221;-54
2024/03/08 12:04:13;;;;;;;17.20;12.50;;;10.80;99.90;;;;;;5082981;28;20237;-55
2024/03/08 12:06:41;;;;;;;17.63;12.90;;;10.90;99.90;;;;;;5084015;28;20240;-54
2024/03/08 12:09:10;;;;;;;17.47;12.23;;;11.00;99.90;;;;;;5086956;28;20197;-54
2024/03/08 12:11:37;;;;;;;21.83;13.83;;;11.30;99.90;;;;;;5085641;28;20224;-56
2024/03/08 12:14:03;;;;;;;19.10;12.93;;;11.30;99.90;;;;;;5083065;28;20212;-54
2024/03/08 12:16:32;;;;;;;18.77;12.60;;;11.40;99.90;;;;;;5082988;28;20200;-54
2024/03/08 12:18:59;;;;;;;18.37;13.47;;;11.60;99.90;;;;;;5074735;28;20201;-57
2024/03/08 12:21:29;;;;;;;17.30;12.33;;;11.70;99.90;;;;;;5082351;28;20706;-54
2024/03/08 12:24:08;;;;;;;16.17;12.53;;;11.50;99.90;;;;;;5085853;28;20297;-54
2024/03/08 12:26:36;;;;;;;20.07;14.17;;;11.50;99.90;;;;;;5086394;28;20295;-55
2024/03/08 12:29:22;;;;;;;17.03;13.03;;;11.60;99.90;;;;;;5085983;28;20201;-54
2024/03/08 12:31:53;;;;;;;19.03;12.80;;;11.80;99.90;;;;;;5083790;28;20311;-53
2024/03/08 12:34:19;;;;;;;19.47;12.67;;;11.90;99.90;;;;;;5082264;28;20228;-53
2024/03/08 12:36:48;;;;;;;17.93;12.57;;;12.00;99.90;;;;;;5084287;28;20254;-54
2024/03/08 12:39:22;;;;;;;15.97;12.37;;;12.20;99.90;;;;;;5085649;28;20254;-53
2024/03/08 12:41:48;;;;;;;18.90;13.33;;;12.20;99.90;;;;;;5083392;28;20287;-54
2024/03/08 12:44:15;;;;;;;16.00;11.90;;;12.20;99.90;;;;;;5081943;28;20212;-54